Time;durP1;ratioP1;P1;durP2;ratioP2;P2;SDS_P1;SDS_P2;PMS_P1;PMS_P2;Temp;Humidity;BMP_temperature;BMP_pressure;BME280_temperature;BME280_humidity;BME280_pressure;Samples;Min_cycle;Max_cycle;Signal;HPM_P1;HPM_P2
2023/10/08 00:00:51;;;;;;;5.13;4.63;;;;;;;;;;4975195;28;20602;-65
2023/10/08 00:03:20;;;;;;;6.73;4.70;;;;;;;;;;4979055;28;20618;-65
2023/10/08 00:05:50;;;;;;;6.03;4.63;;;;;;;;;;4981522;28;20684;-65
2023/10/08 00:08:20;;;;;;;6.33;5.53;;;;;;;;;;4991974;28;20642;-64
2023/10/08 00:10:49;;;;;;;7.67;5.63;;;;;;;;;;4971926;28;20641;-64
2023/10/08 00:13:17;;;;;;;8.00;5.10;;;;;;;;;;4987894;28;20640;-65
2023/10/08 00:15:52;;;;;;;5.47;4.80;;;;;;;;;;4984740;28;20683;-65
2023/10/08 00:18:22;;;;;;;5.73;5.13;;;;;;;;;;4992026;28;20584;-64
2023/10/08 00:20:58;;;;;;;8.67;4.60;;;;;;;;;;4991949;28;20618;-65
2023/10/08 00:23:26;;;;;;;4.93;4.20;;;;;;;;;;4991507;28;20618;-64
2023/10/08 00:25:55;;;;;;;5.53;5.13;;;;;;;;;;4991565;28;20632;-65
2023/10/08 00:28:24;;;;;;;5.10;4.70;;;;;;;;;;4987175;28;20661;-65
2023/10/08 00:30:54;;;;;;;5.33;4.83;;;;;;;;;;4978549;28;21257;-65
2023/10/08 00:33:24;;;;;;;8.30;6.30;;;;;;;;;;4982670;28;20637;-65
2023/10/08 00:35:52;;;;;;;7.00;5.13;;;;;;;;;;4972323;28;20656;-64
2023/10/08 00:38:21;;;;;;;8.50;5.20;;;;;;;;;;4972242;28;20983;-64
2023/10/08 00:40:49;;;;;;;7.50;5.20;;;;;;;;;;4956360;28;20635;-66
2023/10/08 00:43:35;;;;;;;5.93;5.27;;;;;;;;;;4966096;28;20688;-65
2023/10/08 00:46:16;;;;;;;8.33;5.00;;;;;;;;;;4969092;28;20610;-65
2023/10/08 00:48:47;;;;;;;6.97;4.80;;;;;;;;;;4976700;28;20637;-65
2023/10/08 00:51:25;;;;;;;4.90;4.40;;;;;;;;;;4960525;28;20610;-65
2023/10/08 00:53:59;;;;;;;4.83;4.33;;;;;;;;;;4971123;28;20621;-65
2023/10/08 00:56:44;;;;;;;5.90;4.77;;;;;;;;;;4976047;28;20614;-65
2023/10/08 00:59:15;;;;;;;4.83;4.43;;;;;;;;;;4961465;28;20618;-65
2023/10/08 01:01:51;;;;;;;4.73;4.27;;;;;;;;;;4977599;28;21212;-66
2023/10/08 01:04:23;;;;;;;7.23;4.87;;;;;;;;;;4986592;28;20613;-66
2023/10/08 01:06:55;;;;;;;4.70;4.27;;;;;;;;;;4977846;28;20614;-65
2023/10/08 01:09:35;;;;;;;8.40;5.13;;;;;;;;;;4976831;28;20722;-65
2023/10/08 01:12:12;;;;;;;5.90;4.07;;;;;;;;;;4995997;28;21166;-65
2023/10/08 01:14:43;;;;;;;4.57;4.10;;;;;;;;;;4966485;28;20612;-65
2023/10/08 01:17:19;;;;;;;5.17;4.67;;;;;;;;;;4960644;28;20592;-65
2023/10/08 01:19:55;;;;;;;5.17;4.57;;;;;;;;;;4983450;28;20675;-65
2023/10/08 01:22:28;;;;;;;5.03;4.13;;;;;;;;;;4977738;28;20665;-65
2023/10/08 01:24:57;;;;;;;5.40;4.10;;;;;;;;;;4976627;28;20614;-66
2023/10/08 01:27:27;;;;;;;6.70;4.17;;;;;;;;;;4986167;28;20975;-65
2023/10/08 01:30:08;;;;;;;5.50;4.73;;;;;;;;;;4980837;28;21704;-65
2023/10/08 01:32:36;;;;;;;6.43;5.30;;;;;;;;;;4960598;28;20596;-66
2023/10/08 01:35:21;;;;;;;5.90;5.00;;;;;;;;;;4979056;28;20661;-66
2023/10/08 01:37:52;;;;;;;4.80;4.03;;;;;;;;;;4960866;28;20610;-65
2023/10/08 01:40:20;;;;;;;5.60;4.37;;;;;;;;;;4967395;28;20625;-65
2023/10/08 01:42:52;;;;;;;6.13;4.20;;;;;;;;;;4983436;28;20668;-65
2023/10/08 01:45:24;;;;;;;5.70;4.10;;;;;;;;;;4993764;28;20613;-65
2023/10/08 01:47:54;;;;;;;8.80;4.20;;;;;;;;;;4981436;28;20645;-65
2023/10/08 01:50:24;;;;;;;5.70;4.03;;;;;;;;;;4994874;28;20663;-65
2023/10/08 01:52:54;;;;;;;4.63;3.80;;;;;;;;;;4995768;28;20701;-65
2023/10/08 01:55:23;;;;;;;5.80;4.23;;;;;;;;;;4992365;28;20860;-65
2023/10/08 01:57:52;;;;;;;6.03;4.00;;;;;;;;;;4996603;28;21232;-65
2023/10/08 02:00:22;;;;;;;5.80;4.20;;;;;;;;;;4983698;28;21199;-65
2023/10/08 02:02:51;;;;;;;13.17;5.10;;;;;;;;;;4995353;28;20672;-65
2023/10/08 02:05:20;;;;;;;5.00;4.07;;;;;;;;;;4994600;28;20630;-66
2023/10/08 02:07:50;;;;;;;7.23;4.13;;;;;;;;;;4995641;28;20621;-65
2023/10/08 02:10:22;;;;;;;4.40;3.87;;;;;;;;;;4993573;28;20628;-66
2023/10/08 02:12:50;;;;;;;10.70;5.27;;;;;;;;;;4979169;28;20633;-66
2023/10/08 02:15:18;;;;;;;7.80;4.10;;;;;;;;;;4978378;28;20637;-65
2023/10/08 02:17:47;;;;;;;5.83;4.20;;;;;;;;;;4976952;28;20626;-65
2023/10/08 02:20:16;;;;;;;5.07;3.87;;;;;;;;;;4986137;28;20632;-66
2023/10/08 02:22:45;;;;;;;5.00;3.80;;;;;;;;;;4992620;28;20666;-65
2023/10/08 02:25:13;;;;;;;6.40;4.50;;;;;;;;;;4975805;28;21176;-66
2023/10/08 02:27:43;;;;;;;6.33;4.20;;;;;;;;;;4976008;28;20634;-66
2023/10/08 02:30:12;;;;;;;5.57;4.10;;;;;;;;;;4986017;28;20659;-66
2023/10/08 02:32:42;;;;;;;5.07;4.57;;;;;;;;;;4976298;28;20618;-66
2023/10/08 02:35:12;;;;;;;12.03;4.70;;;;;;;;;;4976654;28;21009;-66
2023/10/08 02:37:41;;;;;;;5.40;3.57;;;;;;;;;;4967400;28;20616;-66
2023/10/08 02:40:26;;;;;;;4.33;3.90;;;;;;;;;;4987171;28;20633;-66
2023/10/08 02:42:58;;;;;;;8.77;4.30;;;;;;;;;;4991057;28;20657;-66
2023/10/08 02:45:26;;;;;;;9.03;4.00;;;;;;;;;;4978138;28;22024;-65
2023/10/08 02:47:55;;;;;;;3.53;3.23;;;;;;;;;;4961031;28;20854;-65
2023/10/08 02:50:23;;;;;;;6.80;4.57;;;;;;;;;;4985891;28;20673;-66
2023/10/08 02:52:52;;;;;;;6.50;4.40;;;;;;;;;;4958746;28;20634;-66
2023/10/08 02:55:28;;;;;;;12.13;4.50;;;;;;;;;;4975678;28;20649;-65
2023/10/08 02:57:58;;;;;;;6.27;4.60;;;;;;;;;;4958276;28;20684;-66
2023/10/08 03:00:29;;;;;;;4.83;4.17;;;;;;;;;;4976841;28;20639;-65
2023/10/08 03:03:01;;;;;;;6.77;4.30;;;;;;;;;;4959729;28;20964;-66
2023/10/08 03:05:31;;;;;;;7.40;4.17;;;;;;;;;;4982645;28;20662;-65
2023/10/08 03:08:00;;;;;;;7.23;3.60;;;;;;;;;;4959889;28;20607;-65
2023/10/08 03:10:33;;;;;;;5.37;3.67;;;;;;;;;;4985918;28;20661;-65
2023/10/08 03:13:05;;;;;;;9.03;4.97;;;;;;;;;;4992966;28;21135;-65
2023/10/08 03:15:46;;;;;;;4.03;3.60;;;;;;;;;;4994166;28;20616;-65
2023/10/08 03:18:15;;;;;;;6.93;3.90;;;;;;;;;;4985474;28;21227;-65
2023/10/08 03:20:44;;;;;;;8.97;4.47;;;;;;;;;;4993305;28;20660;-65
2023/10/08 03:23:22;;;;;;;4.83;4.13;;;;;;;;;;4977025;28;21226;-65
2023/10/08 03:25:58;;;;;;;7.63;4.20;;;;;;;;;;4959168;28;20623;-65
2023/10/08 03:28:28;;;;;;;7.67;4.40;;;;;;;;;;4978460;28;20617;-65
2023/10/08 03:31:03;;;;;;;5.57;4.20;;;;;;;;;;4990737;28;20630;-66
2023/10/08 03:33:34;;;;;;;7.47;4.40;;;;;;;;;;4975077;28;20616;-65
2023/10/08 03:36:09;;;;;;;5.33;4.27;;;;;;;;;;4981092;28;20610;-65
2023/10/08 03:38:50;;;;;;;7.83;4.10;;;;;;;;;;4974941;28;20614;-65
2023/10/08 03:41:20;;;;;;;4.87;4.00;;;;;;;;;;4974907;28;20610;-65
2023/10/08 03:43:58;;;;;;;6.23;4.73;;;;;;;;;;4975557;28;20665;-65
2023/10/08 03:46:26;;;;;;;7.20;5.00;;;;;;;;;;4982852;28;20641;-65
2023/10/08 03:48:57;;;;;;;4.40;3.70;;;;;;;;;;4976658;28;20663;-65
2023/10/08 03:51:27;;;;;;;7.63;5.20;;;;;;;;;;4994205;28;20609;-65
2023/10/08 03:53:59;;;;;;;6.67;4.23;;;;;;;;;;4976062;28;20633;-65
2023/10/08 03:56:29;;;;;;;6.67;4.70;;;;;;;;;;4990513;28;20618;-65
2023/10/08 03:59:01;;;;;;;7.00;4.77;;;;;;;;;;4993036;28;20622;-65
2023/10/08 04:01:32;;;;;;;5.20;4.50;;;;;;;;;;4991701;28;20602;-66
2023/10/08 04:04:00;;;;;;;10.43;4.67;;;;;;;;;;4993104;28;20968;-66
2023/10/08 04:06:30;;;;;;;7.67;5.63;;;;;;;;;;4985658;28;20632;-66
2023/10/08 04:09:11;;;;;;;11.83;5.03;;;;;;;;;;4989511;28;20670;-66
2023/10/08 04:11:51;;;;;;;8.83;5.37;;;;;;;;;;4975513;28;20602;-66
2023/10/08 04:14:22;;;;;;;5.00;4.50;;;;;;;;;;4985557;28;20640;-65
2023/10/08 04:16:51;;;;;;;5.33;4.67;;;;;;;;;;4975570;28;20577;-65
2023/10/08 04:19:20;;;;;;;9.47;4.90;;;;;;;;;;4989923;28;20597;-65
2023/10/08 04:21:53;;;;;;;5.33;4.60;;;;;;;;;;4992708;28;20661;-65
2023/10/08 04:24:28;;;;;;;6.87;5.20;;;;;;;;;;4994256;28;20576;-65
2023/10/08 04:27:02;;;;;;;4.93;4.40;;;;;;;;;;4990930;28;20609;-66
2023/10/08 04:29:32;;;;;;;8.87;4.30;;;;;;;;;;4981063;28;21006;-65
2023/10/08 04:32:09;;;;;;;9.23;4.97;;;;;;;;;;4975458;28;20683;-66
2023/10/08 04:34:37;;;;;;;8.27;4.57;;;;;;;;;;4990165;28;20621;-66
2023/10/08 04:37:12;;;;;;;5.40;4.67;;;;;;;;;;4977685;28;20663;-65
2023/10/08 04:39:46;;;;;;;6.90;4.73;;;;;;;;;;4992905;28;20602;-65
2023/10/08 04:42:14;;;;;;;9.80;5.30;;;;;;;;;;4985056;28;20610;-66
2023/10/08 04:44:44;;;;;;;7.60;4.70;;;;;;;;;;4986167;28;20636;-65
2023/10/08 04:47:31;;;;;;;5.87;4.33;;;;;;;;;;4976953;28;20654;-65
2023/10/08 04:49:59;;;;;;;6.43;4.60;;;;;;;;;;4976399;28;20633;-66
2023/10/08 04:52:33;;;;;;;5.70;4.80;;;;;;;;;;4986889;28;20967;-65
2023/10/08 04:55:12;;;;;;;5.93;5.23;;;;;;;;;;4984041;28;20702;-66
2023/10/08 04:57:42;;;;;;;5.03;4.37;;;;;;;;;;4974310;28;20606;-65
2023/10/08 05:00:15;;;;;;;6.50;4.80;;;;;;;;;;4991422;28;20609;-66
2023/10/08 05:02:50;;;;;;;6.83;5.07;;;;;;;;;;4973598;28;20584;-65
2023/10/08 05:05:32;;;;;;;5.20;4.23;;;;;;;;;;4988563;28;20613;-66
2023/10/08 05:08:28;;;;;;;5.93;4.23;;;;;;;;;;4978941;28;20935;-65
2023/10/08 05:11:14;;;;;;;6.47;4.50;;;;;;;;;;4977280;28;21251;-65
2023/10/08 05:14:05;;;;;;;8.03;4.30;;;;;;;;;;4986987;28;20603;-65
2023/10/08 05:16:43;;;;;;;7.37;4.77;;;;;;;;;;4976576;28;20670;-65
2023/10/08 05:19:47;;;;;;;6.83;5.10;;;;;;;;;;4973783;28;20587;-65
2023/10/08 05:22:40;;;;;;;7.40;5.07;;;;;;;;;;4973560;28;20676;-65
2023/10/08 05:25:08;;;;;;;8.00;5.00;;;;;;;;;;4956739;28;20568;-66
2023/10/08 05:27:56;;;;;;;12.53;4.90;;;;;;;;;;4986237;28;20639;-65
2023/10/08 05:30:28;;;;;;;7.60;3.90;;;;;;;;;;4987942;28;20657;-66
2023/10/08 05:33:12;;;;;;;5.67;5.10;;;;;;;;;;4978305;28;20651;-66
2023/10/08 05:35:49;;;;;;;9.47;5.00;;;;;;;;;;4980642;28;20588;-65
2023/10/08 05:38:23;;;;;;;10.93;4.27;;;;;;;;;;4981434;28;20697;-66
2023/10/08 05:41:04;;;;;;;9.23;4.43;;;;;;;;;;4990920;28;20602;-65
2023/10/08 05:46:47;;;;;;;9.73;4.47;;;;;;;;;;4930023;29;20639;-65
2023/10/08 05:49:26;;;;;;;7.10;4.97;;;;;;;;;;4975136;28;20632;-66
2023/10/08 05:52:25;;;;;;;13.83;6.73;;;;;;;;;;4996344;28;20606;-65
2023/10/08 05:55:15;;;;;;;7.13;4.33;;;;;;;;;;4985945;28;20638;-65
2023/10/08 05:57:52;;;;;;;10.50;5.17;;;;;;;;;;4986410;28;20632;-65
2023/10/08 06:03:31;;;;;;;9.60;4.90;;;;;;;;;;4959946;28;20585;-66
2023/10/08 06:09:04;;;;;;;5.60;4.60;;;;;;;;;;4977048;28;20670;-66
2023/10/08 06:11:44;;;;;;;9.93;4.53;;;;;;;;;;4989791;28;20976;-65
2023/10/08 06:14:28;;;;;;;7.20;4.70;;;;;;;;;;4970074;28;20582;-65
2023/10/08 06:17:13;;;;;;;5.47;3.80;;;;;;;;;;4994707;28;20617;-65
2023/10/08 06:19:40;;;;;;;6.50;5.27;;;;;;;;;;4988348;28;20667;-65
2023/10/08 06:22:10;;;;;;;7.87;4.93;;;;;;;;;;4995908;28;20624;-66
2023/10/08 06:24:38;;;;;;;6.57;4.87;;;;;;;;;;4981388;28;20693;-65
2023/10/08 06:27:07;;;;;;;6.80;4.40;;;;;;;;;;4978210;28;20626;-66
2023/10/08 06:29:35;;;;;;;8.30;3.73;;;;;;;;;;4982557;28;20622;-66
2023/10/08 06:32:04;;;;;;;4.70;4.20;;;;;;;;;;4982389;28;20717;-65
2023/10/08 06:34:32;;;;;;;10.53;4.87;;;;;;;;;;4977971;28;20680;-65
2023/10/08 06:37:01;;;;;;;5.63;4.30;;;;;;;;;;4985805;28;21066;-65
2023/10/08 06:39:47;;;;;;;4.53;4.10;;;;;;;;;;4976939;28;20625;-65
2023/10/08 06:42:16;;;;;;;30.60;25.10;;;;;;;;;;4990258;28;21023;-65
2023/10/08 06:44:48;;;;;;;18.47;16.57;;;;;;;;;;4980392;28;20664;-65
2023/10/08 06:47:16;;;;;;;11.50;7.80;;;;;;;;;;4984689;28;20680;-65
2023/10/08 06:49:46;;;;;;;10.87;5.80;;;;;;;;;;4985454;28;20640;-65
2023/10/08 06:52:14;;;;;;;7.87;5.10;;;;;;;;;;4986665;28;20627;-65
2023/10/08 06:54:43;;;;;;;6.93;5.27;;;;;;;;;;4985549;28;20695;-65
2023/10/08 06:57:13;;;;;;;10.73;4.67;;;;;;;;;;4989256;28;21206;-65
2023/10/08 06:59:42;;;;;;;9.80;5.40;;;;;;;;;;4989185;28;20623;-65
2023/10/08 07:02:14;;;;;;;9.17;5.10;;;;;;;;;;4986690;28;20620;-65
2023/10/08 07:04:46;;;;;;;6.57;4.60;;;;;;;;;;4986852;28;20602;-65
2023/10/08 07:07:18;;;;;;;6.13;4.00;;;;;;;;;;4991219;28;20624;-65
2023/10/08 07:09:51;;;;;;;7.53;5.10;;;;;;;;;;4985674;28;20619;-65
2023/10/08 07:12:19;;;;;;;5.50;4.30;;;;;;;;;;4987023;28;20618;-66
2023/10/08 07:14:48;;;;;;;10.67;5.10;;;;;;;;;;4976179;28;21278;-65
2023/10/08 07:17:19;;;;;;;9.83;5.20;;;;;;;;;;4977605;28;20633;-65
2023/10/08 07:19:50;;;;;;;7.67;4.70;;;;;;;;;;4988212;28;20617;-65
2023/10/08 07:22:22;;;;;;;7.90;4.53;;;;;;;;;;4975798;28;20657;-65
2023/10/08 07:24:51;;;;;;;6.13;4.70;;;;;;;;;;4989357;28;20610;-65
2023/10/08 07:27:21;;;;;;;8.03;5.23;;;;;;;;;;4993536;28;20631;-65
2023/10/08 07:29:49;;;;;;;7.73;4.70;;;;;;;;;;4985652;28;20696;-65
2023/10/08 07:32:18;;;;;;;6.90;4.97;;;;;;;;;;4992520;28;20679;-65
2023/10/08 07:34:47;;;;;;;5.73;4.67;;;;;;;;;;4983181;28;21176;-65
2023/10/08 07:37:16;;;;;;;5.00;4.50;;;;;;;;;;4987260;28;20629;-65
2023/10/08 07:39:46;;;;;;;5.87;5.00;;;;;;;;;;4993548;28;20607;-66
2023/10/08 07:42:16;;;;;;;7.60;5.50;;;;;;;;;;4993228;28;20655;-66
2023/10/08 07:44:44;;;;;;;7.13;4.70;;;;;;;;;;4974029;28;20655;-66
2023/10/08 07:47:14;;;;;;;5.63;4.07;;;;;;;;;;4992062;28;20646;-65
2023/10/08 07:49:44;;;;;;;5.03;4.53;;;;;;;;;;4986829;28;20618;-66
2023/10/08 07:52:15;;;;;;;5.33;4.40;;;;;;;;;;4976028;28;21235;-66
2023/10/08 07:54:43;;;;;;;5.80;4.83;;;;;;;;;;4982610;28;20609;-66
2023/10/08 07:57:14;;;;;;;7.53;5.20;;;;;;;;;;4975894;28;20631;-66
2023/10/08 07:59:46;;;;;;;10.23;5.00;;;;;;;;;;4987285;28;20614;-66
2023/10/08 08:02:16;;;;;;;9.33;4.97;;;;;;;;;;4986682;28;20606;-65
2023/10/08 08:04:45;;;;;;;5.20;4.70;;;;;;;;;;4971349;28;20579;-65
2023/10/08 08:07:15;;;;;;;6.40;4.83;;;;;;;;;;4972645;28;20618;-66
2023/10/08 08:09:50;;;;;;;11.60;5.00;;;;;;;;;;4980433;28;20734;-65
2023/10/08 08:12:19;;;;;;;11.10;5.00;;;;;;;;;;4982828;28;20656;-66
2023/10/08 08:14:48;;;;;;;9.80;4.50;;;;;;;;;;4985900;28;20614;-65
2023/10/08 08:17:16;;;;;;;9.50;5.40;;;;;;;;;;4985669;28;20641;-66
2023/10/08 08:19:47;;;;;;;10.90;5.60;;;;;;;;;;4972291;28;20630;-65
2023/10/08 08:22:20;;;;;;;7.63;4.60;;;;;;;;;;4985607;28;20655;-66
2023/10/08 08:24:53;;;;;;;7.37;4.60;;;;;;;;;;4981572;28;20587;-65
2023/10/08 08:27:25;;;;;;;6.17;4.87;;;;;;;;;;4991934;28;20947;-65
2023/10/08 08:29:55;;;;;;;7.53;5.07;;;;;;;;;;4982757;28;20598;-65
2023/10/08 08:32:24;;;;;;;5.90;4.33;;;;;;;;;;4972412;28;21027;-64
2023/10/08 08:34:52;;;;;;;9.43;4.60;;;;;;;;;;4987862;28;20959;-64
2023/10/08 08:37:22;;;;;;;8.43;5.13;;;;;;;;;;4982738;28;20630;-65
2023/10/08 08:39:51;;;;;;;8.83;5.10;;;;;;;;;;4973583;28;21208;-65
2023/10/08 08:42:23;;;;;;;6.30;5.00;;;;;;;;;;4978855;28;20617;-65
2023/10/08 08:44:52;;;;;;;7.50;5.40;;;;;;;;;;4973427;28;20964;-65
2023/10/08 08:47:24;;;;;;;5.87;5.20;;;;;;;;;;4987274;28;20635;-65
2023/10/08 08:49:55;;;;;;;9.17;5.63;;;;;;;;;;4991918;28;21179;-64
2023/10/08 08:52:23;;;;;;;5.80;5.30;;;;;;;;;;4966438;28;20646;-65
2023/10/08 08:54:52;;;;;;;6.30;5.70;;;;;;;;;;4972800;28;20617;-65
2023/10/08 08:57:22;;;;;;;6.70;6.20;;;;;;;;;;4972960;28;21034;-65
2023/10/08 08:59:52;;;;;;;5.27;4.40;;;;;;;;;;4987238;28;20622;-66
2023/10/08 09:02:22;;;;;;;13.50;5.70;;;;;;;;;;4988755;28;20647;-67
2023/10/08 09:04:53;;;;;;;10.60;5.90;;;;;;;;;;4995012;28;20975;-66
2023/10/08 09:07:22;;;;;;;11.48;5.45;;;;;;;;;;4989507;28;20752;-65
2023/10/08 09:09:50;;;;;;;9.00;6.27;;;;;;;;;;4964009;28;20633;-65
2023/10/08 09:12:21;;;;;;;5.90;5.30;;;;;;;;;;4984671;28;20663;-65
2023/10/08 09:14:49;;;;;;;5.40;5.00;;;;;;;;;;4975665;28;20644;-65
2023/10/08 09:17:18;;;;;;;5.67;5.20;;;;;;;;;;4984150;28;20683;-65
2023/10/08 09:19:50;;;;;;;6.27;5.67;;;;;;;;;;4987879;28;20637;-65
2023/10/08 09:22:19;;;;;;;6.27;5.50;;;;;;;;;;4975195;28;20658;-65
2023/10/08 09:24:47;;;;;;;6.00;5.47;;;;;;;;;;4975820;28;20625;-66
2023/10/08 09:27:18;;;;;;;6.90;6.00;;;;;;;;;;4985778;28;21034;-65
2023/10/08 09:29:47;;;;;;;6.20;5.70;;;;;;;;;;4994961;28;20610;-66
2023/10/08 09:32:23;;;;;;;7.37;6.73;;;;;;;;;;4993065;28;20669;-65
2023/10/08 09:34:53;;;;;;;7.87;6.67;;;;;;;;;;4991337;28;20611;-65
2023/10/08 09:37:22;;;;;;;8.00;6.90;;;;;;;;;;4978737;28;20664;-65
2023/10/08 09:39:52;;;;;;;6.70;6.10;;;;;;;;;;4970238;28;20623;-65
2023/10/08 09:42:22;;;;;;;11.80;7.13;;;;;;;;;;4992406;28;20609;-66
2023/10/08 09:44:50;;;;;;;6.60;6.03;;;;;;;;;;4980278;28;20622;-65
2023/10/08 09:47:23;;;;;;;6.93;6.17;;;;;;;;;;4961518;28;20613;-67
2023/10/08 09:49:58;;;;;;;6.90;6.40;;;;;;;;;;4975472;28;20672;-65
2023/10/08 09:52:30;;;;;;;7.40;6.70;;;;;;;;;;4994709;28;20653;-65
2023/10/08 09:55:03;;;;;;;9.40;6.33;;;;;;;;;;4993702;28;20609;-66
2023/10/08 09:57:33;;;;;;;11.80;6.83;;;;;;;;;;4994804;28;20602;-65
2023/10/08 10:00:02;;;;;;;7.07;6.37;;;;;;;;;;4994035;28;21249;-66
2023/10/08 10:02:33;;;;;;;16.63;7.47;;;;;;;;;;4991991;28;20604;-65
2023/10/08 10:05:05;;;;;;;7.80;7.20;;;;;;;;;;4985485;28;20674;-65
2023/10/08 10:07:34;;;;;;;7.50;6.80;;;;;;;;;;4993053;28;20620;-65
2023/10/08 10:10:08;;;;;;;6.93;6.43;;;;;;;;;;4993971;28;21006;-65
2023/10/08 10:12:38;;;;;;;8.00;7.40;;;;;;;;;;4994410;28;20659;-65
2023/10/08 10:15:08;;;;;;;8.37;7.53;;;;;;;;;;4991936;28;20644;-67
2023/10/08 10:17:37;;;;;;;8.40;7.60;;;;;;;;;;4965102;28;20608;-66
2023/10/08 10:20:13;;;;;;;7.77;7.10;;;;;;;;;;4992804;28;20699;-65
2023/10/08 10:22:43;;;;;;;8.73;7.83;;;;;;;;;;4975920;28;20649;-64
2023/10/08 10:25:17;;;;;;;8.83;8.10;;;;;;;;;;4993199;28;20622;-66
2023/10/08 10:28:00;;;;;;;10.07;9.03;;;;;;;;;;4991793;28;20614;-66
2023/10/08 10:30:28;;;;;;;8.53;7.63;;;;;;;;;;4980111;28;20630;-65
2023/10/08 10:32:59;;;;;;;8.47;7.77;;;;;;;;;;4992131;28;20672;-66
2023/10/08 10:35:32;;;;;;;12.73;8.70;;;;;;;;;;4991604;28;20949;-65
2023/10/08 10:38:03;;;;;;;8.63;8.03;;;;;;;;;;4983478;28;20618;-64
2023/10/08 10:40:39;;;;;;;8.87;8.17;;;;;;;;;;4957122;28;20598;-65
2023/10/08 10:43:09;;;;;;;8.87;8.17;;;;;;;;;;4958678;28;20716;-66
2023/10/08 10:45:40;;;;;;;11.63;8.33;;;;;;;;;;4974356;28;20566;-65
2023/10/08 10:48:13;;;;;;;10.27;8.67;;;;;;;;;;4994322;28;20594;-67
2023/10/08 10:51:08;;;;;;;9.17;8.50;;;;;;;;;;4991519;28;20659;-64
2023/10/08 10:53:44;;;;;;;11.87;8.23;;;;;;;;;;4990843;28;20664;-66
2023/10/08 10:56:19;;;;;;;9.10;8.40;;;;;;;;;;4983932;28;20609;-64
2023/10/08 10:58:53;;;;;;;9.43;8.63;;;;;;;;;;4959939;28;20940;-64
2023/10/08 11:01:24;;;;;;;8.80;8.30;;;;;;;;;;4974440;28;20605;-64
2023/10/08 11:03:52;;;;;;;9.70;9.00;;;;;;;;;;4975023;28;20660;-64
2023/10/08 11:06:23;;;;;;;9.70;8.90;;;;;;;;;;4964343;28;20684;-65
2023/10/08 11:08:52;;;;;;;9.90;9.00;;;;;;;;;;4993074;28;21154;-65
2023/10/08 11:11:27;;;;;;;11.70;9.50;;;;;;;;;;4992906;28;20628;-65
2023/10/08 11:14:00;;;;;;;11.03;9.50;;;;;;;;;;4989008;28;20646;-67
2023/10/08 11:16:31;;;;;;;10.20;9.27;;;;;;;;;;4973596;28;20583;-67
2023/10/08 11:19:06;;;;;;;9.87;9.17;;;;;;;;;;4971116;28;20618;-66
2023/10/08 11:21:50;;;;;;;11.07;10.17;;;;;;;;;;4982774;28;20680;-65
2023/10/08 11:24:28;;;;;;;10.20;9.40;;;;;;;;;;4980249;28;20609;-66
2023/10/08 11:27:09;;;;;;;10.10;9.27;;;;;;;;;;4984700;28;21163;-67
2023/10/08 11:29:38;;;;;;;10.27;9.57;;;;;;;;;;4970257;28;20594;-65
2023/10/08 11:32:07;;;;;;;10.23;9.43;;;;;;;;;;4970962;28;20760;-67
2023/10/08 11:34:38;;;;;;;10.10;9.37;;;;;;;;;;4986107;28;20630;-67
2023/10/08 11:37:19;;;;;;;11.10;10.17;;;;;;;;;;4971680;28;21198;-66
2023/10/08 11:39:49;;;;;;;11.00;10.10;;;;;;;;;;4986592;28;20626;-66
2023/10/08 11:45:17;;;;;;;11.63;10.57;;;;;;;;;;4987327;28;20614;-65
2023/10/08 11:47:48;;;;;;;12.80;11.53;;;;;;;;;;4975281;28;21163;-66
2023/10/08 11:50:19;;;;;;;11.80;10.80;;;;;;;;;;4993274;28;21039;-67
2023/10/08 11:52:49;;;;;;;10.50;9.90;;;;;;;;;;4993849;28;20646;-67
2023/10/08 11:55:19;;;;;;;11.37;10.40;;;;;;;;;;4995081;28;20590;-67
2023/10/08 11:57:48;;;;;;;11.03;10.13;;;;;;;;;;4994070;28;20630;-66
2023/10/08 12:00:20;;;;;;;11.10;10.20;;;;;;;;;;4981254;28;21085;-67
2023/10/08 12:02:48;;;;;;;15.23;10.83;;;;;;;;;;4983952;28;20619;-65
2023/10/08 12:05:19;;;;;;;11.43;10.37;;;;;;;;;;4984633;28;20644;-67
2023/10/08 12:07:50;;;;;;;11.57;10.50;;;;;;;;;;4987666;28;20621;-67
2023/10/08 12:10:22;;;;;;;12.10;10.60;;;;;;;;;;4984957;28;21196;-67
2023/10/08 12:12:52;;;;;;;11.40;10.60;;;;;;;;;;4992782;28;21297;-67
2023/10/08 12:15:20;;;;;;;14.60;11.50;;;;;;;;;;4994459;28;20626;-67
2023/10/08 12:18:08;;;;;;;11.47;10.70;;;;;;;;;;4995574;28;21110;-64
2023/10/08 12:20:43;;;;;;;11.47;10.73;;;;;;;;;;4970094;28;20617;-64
2023/10/08 12:23:23;;;;;;;11.80;11.00;;;;;;;;;;4974984;28;20579;-65
2023/10/08 12:25:55;;;;;;;13.50;11.47;;;;;;;;;;4980870;28;20684;-65
2023/10/08 12:28:24;;;;;;;12.47;11.27;;;;;;;;;;4994793;28;20588;-64
2023/10/08 12:30:53;;;;;;;12.47;11.47;;;;;;;;;;4992765;28;20645;-65
2023/10/08 12:33:23;;;;;;;13.20;12.00;;;;;;;;;;4968747;28;20659;-65
2023/10/08 12:35:53;;;;;;;13.10;11.80;;;;;;;;;;4990366;28;20594;-64
2023/10/08 12:38:23;;;;;;;12.50;11.50;;;;;;;;;;4992800;28;21478;-65
2023/10/08 12:40:53;;;;;;;13.80;12.40;;;;;;;;;;4992647;28;21202;-65
2023/10/08 12:43:22;;;;;;;12.23;11.33;;;;;;;;;;4996828;28;20656;-65
2023/10/08 12:45:52;;;;;;;12.30;11.23;;;;;;;;;;4993269;28;20634;-65
2023/10/08 12:48:21;;;;;;;12.67;11.87;;;;;;;;;;4979343;28;20603;-65
2023/10/08 12:50:56;;;;;;;12.43;11.53;;;;;;;;;;4968951;28;20661;-65
2023/10/08 12:53:33;;;;;;;12.70;11.60;;;;;;;;;;4994136;28;21272;-65
2023/10/08 12:56:05;;;;;;;12.07;10.87;;;;;;;;;;4979154;28;21145;-65
2023/10/08 12:58:39;;;;;;;12.00;10.90;;;;;;;;;;4996956;28;20613;-65
2023/10/08 13:01:09;;;;;;;13.10;11.97;;;;;;;;;;4996429;28;20589;-65
2023/10/08 13:03:41;;;;;;;11.73;10.70;;;;;;;;;;4995522;28;20640;-66
2023/10/08 13:06:14;;;;;;;11.87;10.83;;;;;;;;;;4996363;28;20586;-65
2023/10/08 13:08:44;;;;;;;12.73;11.63;;;;;;;;;;4996608;28;20601;-65
2023/10/08 13:11:12;;;;;;;12.40;11.40;;;;;;;;;;4997093;28;20613;-65
2023/10/08 13:13:41;;;;;;;14.43;12.53;;;;;;;;;;4996215;28;20691;-65
2023/10/08 13:16:09;;;;;;;12.17;11.17;;;;;;;;;;4996993;28;20635;-66
2023/10/08 13:18:38;;;;;;;15.20;11.90;;;;;;;;;;4994086;28;20687;-65
2023/10/08 13:21:06;;;;;;;18.30;12.50;;;;;;;;;;4977825;28;20638;-66
2023/10/08 13:23:35;;;;;;;14.10;12.70;;;;;;;;;;4977072;28;21172;-65
2023/10/08 13:26:06;;;;;;;13.47;11.73;;;;;;;;;;4976756;28;20660;-65
2023/10/08 13:28:35;;;;;;;12.97;11.50;;;;;;;;;;4977527;28;21136;-65
2023/10/08 13:31:09;;;;;;;15.57;11.93;;;;;;;;;;4959103;28;20615;-65
2023/10/08 13:33:40;;;;;;;17.33;12.37;;;;;;;;;;4959578;28;20633;-65
2023/10/08 13:36:09;;;;;;;13.23;11.97;;;;;;;;;;4977485;28;20598;-65
2023/10/08 13:38:37;;;;;;;12.83;11.47;;;;;;;;;;4978232;28;20621;-66
2023/10/08 13:41:14;;;;;;;19.57;12.10;;;;;;;;;;4978461;28;21008;-65
2023/10/08 13:43:45;;;;;;;16.93;12.23;;;;;;;;;;4976485;28;20644;-66
2023/10/08 13:46:14;;;;;;;15.63;12.10;;;;;;;;;;4993412;28;20627;-65
2023/10/08 13:48:46;;;;;;;14.03;12.53;;;;;;;;;;4996587;28;20642;-66
2023/10/08 13:51:14;;;;;;;12.90;11.73;;;;;;;;;;4979104;28;20619;-65
2023/10/08 13:53:44;;;;;;;16.10;12.13;;;;;;;;;;4996683;28;20649;-66
2023/10/08 13:56:15;;;;;;;14.97;12.70;;;;;;;;;;4996631;28;20607;-65
2023/10/08 13:58:46;;;;;;;19.87;12.70;;;;;;;;;;4979328;28;20601;-65
2023/10/08 14:01:20;;;;;;;16.37;11.90;;;;;;;;;;4996033;28;20608;-65
2023/10/08 14:03:48;;;;;;;13.17;11.90;;;;;;;;;;4978111;28;20596;-65
2023/10/08 14:06:17;;;;;;;13.40;11.60;;;;;;;;;;4995478;28;20683;-65
2023/10/08 14:08:51;;;;;;;13.57;12.20;;;;;;;;;;4996489;28;20963;-65
2023/10/08 14:11:23;;;;;;;13.50;11.93;;;;;;;;;;4996358;28;20585;-65
2023/10/08 14:13:52;;;;;;;13.70;11.57;;;;;;;;;;4996586;28;20637;-66
2023/10/08 14:16:23;;;;;;;13.97;12.10;;;;;;;;;;4996132;28;20679;-66
2023/10/08 14:18:53;;;;;;;12.13;11.33;;;;;;;;;;4996798;28;20596;-65
2023/10/08 14:21:23;;;;;;;19.53;12.20;;;;;;;;;;4978893;28;20640;-65
2023/10/08 14:23:53;;;;;;;13.03;11.60;;;;;;;;;;4995964;28;20604;-65
2023/10/08 14:26:22;;;;;;;14.97;12.10;;;;;;;;;;4995535;28;21139;-65
2023/10/08 14:28:57;;;;;;;13.67;12.07;;;;;;;;;;4995658;28;20618;-65
2023/10/08 14:31:26;;;;;;;13.43;12.10;;;;;;;;;;4989598;28;20617;-65
2023/10/08 14:34:05;;;;;;;12.70;11.60;;;;;;;;;;4994397;28;20665;-64
2023/10/08 14:44:54;;;;;;;13.17;12.07;;;;;;;;;;4995126;28;20608;-64
2023/10/08 14:47:22;;;;;;;13.77;12.67;;;;;;;;;;4993373;28;20645;-64
2023/10/08 14:49:51;;;;;;;14.87;13.40;;;;;;;;;;4961067;28;20619;-65
2023/10/08 14:52:19;;;;;;;13.20;12.10;;;;;;;;;;4987550;28;20648;-64
2023/10/08 14:54:47;;;;;;;16.10;13.03;;;;;;;;;;4993921;28;20668;-64
2023/10/08 14:57:18;;;;;;;14.23;12.60;;;;;;;;;;4995650;28;21428;-64
2023/10/08 14:59:48;;;;;;;13.80;12.77;;;;;;;;;;4994745;28;20648;-64
2023/10/08 15:02:16;;;;;;;15.30;12.53;;;;;;;;;;4993916;28;20632;-65
2023/10/08 15:04:44;;;;;;;13.10;11.67;;;;;;;;;;4993059;28;20637;-64
2023/10/08 15:07:17;;;;;;;12.93;11.80;;;;;;;;;;4994836;28;20979;-63
2023/10/08 15:09:45;;;;;;;13.93;12.63;;;;;;;;;;4994681;28;20618;-64
2023/10/08 15:12:16;;;;;;;13.00;11.80;;;;;;;;;;4983585;28;20622;-64
2023/10/08 15:14:46;;;;;;;15.67;12.83;;;;;;;;;;4994576;28;21415;-64
2023/10/08 15:17:17;;;;;;;16.63;12.30;;;;;;;;;;4995039;28;20705;-64
2023/10/08 15:19:46;;;;;;;13.87;12.53;;;;;;;;;;4992894;28;20630;-64
2023/10/08 15:22:14;;;;;;;18.13;13.03;;;;;;;;;;4993738;28;20656;-64
2023/10/08 15:24:43;;;;;;;15.10;12.50;;;;;;;;;;4994198;28;21157;-64